createdAt,value
2023-01-10T00:00:02.965Z,97014.75
2023-01-10T00:04:20.589Z,97018.13
2023-01-10T00:08:38.414Z,97028.78
2023-01-10T00:13:14.636Z,97028.03
2023-01-10T00:17:32.352Z,97029.22
2023-01-10T00:21:50.487Z,97029.78
2023-01-10T00:26:08.067Z,97033.16
2023-01-10T00:30:25.779Z,97041.66
2023-01-10T00:34:43.261Z,97039.88
2023-01-10T00:39:00.998Z,97038.09
2023-01-10T00:43:38.284Z,97040.88
2023-01-10T00:47:56.045Z,97053.28
2023-01-10T00:52:13.900Z,97065.97
2023-01-10T00:56:31.456Z,97067.91
2023-01-10T01:00:50.351Z,97071.69
2023-01-10T01:05:08.505Z,97074.25
2023-01-10T01:09:26.149Z,97090.03
2023-01-10T01:13:43.705Z,97092.63
2023-01-10T01:18:02.072Z,97104.66
2023-01-10T01:22:20.431Z,97095.78
2023-01-10T01:26:38.204Z,97097.75
2023-01-10T01:30:55.793Z,97103.13
2023-01-10T01:35:16.661Z,97122.25
2023-01-10T01:39:34.182Z,97119.13
2023-01-10T01:44:16.877Z,97117.50
2023-01-10T01:48:41.795Z,97118.69
2023-01-10T01:53:03.054Z,97116.13
2023-01-10T01:57:25.713Z,97124.25
2023-01-10T02:01:46.753Z,97128.19
2023-01-10T02:06:04.792Z,97121.47
2023-01-10T02:10:48.821Z,97126.63
2023-01-10T02:15:07.488Z,97126.22
2023-01-10T02:19:38.982Z,97127.00
2023-01-10T02:24:36.552Z,97128.97
2023-01-10T02:29:26.083Z,97133.72
2023-01-10T02:34:04.749Z,97140.63
2023-01-10T02:38:32.569Z,97151.13
2023-01-10T02:43:00.959Z,97146.38
2023-01-10T02:47:19.299Z,97153.28
2023-01-10T02:51:37.028Z,97158.19
2023-01-10T02:56:12.793Z,97168.69
2023-01-10T03:00:48.568Z,97169.28
2023-01-10T03:05:46.740Z,97179.56
2023-01-10T03:10:10.045Z,97185.50
2023-01-10T03:14:29.571Z,97185.09
2023-01-10T03:19:04.626Z,97195.75
2023-01-10T03:23:23.495Z,97201.13
2023-01-10T03:28:13.629Z,97218.09
2023-01-10T03:32:32.999Z,97221.03
2023-01-10T03:37:07.341Z,97222.81
2023-01-10T03:41:41.325Z,97220.88
2023-01-10T03:46:09.303Z,97234.50
2023-01-10T03:50:28.505Z,97244.00
2023-01-10T03:54:48.172Z,97251.66
2023-01-10T03:59:05.685Z,97257.03
2023-01-10T04:03:24.716Z,97264.16
2023-01-10T04:07:42.439Z,97267.28
2023-01-10T04:12:00.181Z,97279.53
2023-01-10T04:16:17.840Z,97283.28
2023-01-10T04:20:35.355Z,97281.53
2023-01-10T04:24:54.177Z,97290.66
2023-01-10T04:29:11.731Z,97295.59
2023-01-10T04:33:29.547Z,97307.22
2023-01-10T04:37:47.037Z,97305.03
2023-01-10T04:42:04.758Z,97296.72
2023-01-10T04:46:22.269Z,97305.44
2023-01-10T04:50:39.926Z,97321.63
2023-01-10T04:54:57.547Z,97322.22
2023-01-10T04:59:16.057Z,97312.16
2023-01-10T05:03:33.524Z,97326.56
2023-01-10T05:07:51.582Z,97331.13
2023-01-10T05:12:09.324Z,97346.13
2023-01-10T05:16:27.844Z,97349.31
2023-01-10T05:20:45.554Z,97358.38
2023-01-10T05:25:03.196Z,97368.25
2023-01-10T05:29:21.218Z,97374.78
2023-01-10T05:33:39.185Z,97367.22
2023-01-10T05:37:56.914Z,97381.50
2023-01-10T05:42:14.551Z,97396.34
2023-01-10T05:46:32.286Z,97399.34
2023-01-10T05:50:51.106Z,97409.38
2023-01-10T05:55:08.901Z,97419.66
2023-01-10T05:59:28.292Z,97425.59
2023-01-10T06:03:47.311Z,97435.81
2023-01-10T06:08:05.094Z,97438.00
2023-01-10T06:12:22.801Z,97436.03
2023-01-10T06:16:41.859Z,97446.09
2023-01-10T06:20:59.621Z,97444.13
2023-01-10T06:25:17.398Z,97456.03
2023-01-10T06:29:35.393Z,97454.81
2023-01-10T06:33:53.229Z,97468.69
2023-01-10T06:38:10.705Z,97478.13
2023-01-10T06:42:29.052Z,97477.91
2023-01-10T06:46:46.742Z,97478.88
2023-01-10T06:51:06.525Z,97486.81
2023-01-10T06:55:25.320Z,97495.53
2023-01-10T06:59:42.963Z,97509.75
2023-01-10T07:04:00.498Z,97519.44
2023-01-10T07:08:18.208Z,97515.88
2023-01-10T07:12:35.880Z,97521.25
2023-01-10T07:16:53.498Z,97523.22
2023-01-10T07:21:12.009Z,97523.78
2023-01-10T07:25:30.458Z,97524.16
2023-01-10T07:29:48.211Z,97524.56
2023-01-10T07:34:05.760Z,97520.81
2023-01-10T07:38:23.854Z,97527.13
2023-01-10T07:42:41.450Z,97525.00
2023-01-10T07:46:59.439Z,97527.97
2023-01-10T07:51:17.275Z,97533.66
2023-01-10T07:55:39.060Z,97543.56
2023-01-10T07:59:56.792Z,97549.84
2023-01-10T08:04:14.363Z,97545.59
2023-01-10T08:08:35.307Z,97557.41
2023-01-10T08:12:52.957Z,97558.63
2023-01-10T08:17:10.717Z,97562.91
2023-01-10T08:21:28.147Z,97557.88
2023-01-10T08:25:46.297Z,97581.91
2023-01-10T08:30:06.137Z,97579.59
2023-01-10T08:34:24.141Z,97592.94
2023-01-10T08:38:42.188Z,97614.91
2023-01-10T08:43:02.531Z,97605.03
2023-01-10T08:47:20.393Z,97599.72
2023-01-10T08:51:38.137Z,97604.06
2023-01-10T08:55:55.852Z,97620.22
2023-01-10T09:00:14.058Z,97624.19
2023-01-10T09:04:33.077Z,97629.94
2023-01-10T09:08:51.132Z,97636.31
2023-01-10T09:13:09.968Z,97652.69
2023-01-10T09:17:27.571Z,97677.06
2023-01-10T09:21:45.247Z,97691.59
2023-01-10T09:26:03.552Z,97685.31
2023-01-10T09:30:21.579Z,97685.06
2023-01-10T09:34:39.138Z,97672.66
2023-01-10T09:38:56.868Z,97686.09
2023-01-10T09:43:54.804Z,97687.88
2023-01-10T09:48:41.323Z,97697.97
2023-01-10T09:53:25.138Z,97692.22
2023-01-10T09:57:42.769Z,97702.31
2023-01-10T10:02:17.277Z,97709.84
2023-01-10T10:06:34.874Z,97721.09
2023-01-10T10:11:27.239Z,97718.53
2023-01-10T10:16:02.639Z,97721.47
2023-01-10T10:20:54.168Z,97735.03
2023-01-10T10:26:11.484Z,97736.06
2023-01-10T10:30:53.506Z,97742.19
2023-01-10T10:35:37.301Z,97743.06
2023-01-10T10:39:59.360Z,97740.81
2023-01-10T10:44:55.309Z,97753.66
2023-01-10T10:49:49.368Z,97763.38
2023-01-10T10:54:12.375Z,97771.63
2023-01-10T10:58:32.185Z,97764.63
2023-01-10T11:03:04.826Z,97771.53
2023-01-10T11:07:22.695Z,97764.50
2023-01-10T11:11:47.719Z,97771.78
2023-01-10T11:16:07.153Z,97777.47
2023-01-10T11:20:25.008Z,97778.78
2023-01-10T11:24:56.717Z,97787.53
2023-01-10T11:29:19.948Z,97787.91
2023-01-10T11:33:39.995Z,97796.41
2023-01-10T11:38:22.366Z,97802.78
2023-01-10T11:42:40.242Z,97817.06
2023-01-10T11:47:03.117Z,97820.41
2023-01-10T11:51:28.620Z,97828.56
2023-01-10T11:55:48.501Z,97834.69
2023-01-10T12:00:09.810Z,97838.69
2023-01-10T12:04:31.468Z,97846.75
2023-01-10T12:08:50.553Z,97849.50
2023-01-10T12:13:16.254Z,97846.13
2023-01-10T12:17:38.033Z,97848.69
2023-01-10T12:22:02.796Z,97866.94
2023-01-10T12:26:21.880Z,97871.63
2023-01-10T12:30:44.577Z,97881.13
2023-01-10T12:35:10.617Z,97890.22
2023-01-10T12:39:39.137Z,97897.16
2023-01-10T12:44:12.527Z,97904.50
2023-01-10T12:48:52.712Z,97905.66
2023-01-10T12:53:44.073Z,97926.13
2023-01-10T12:58:05.331Z,97910.78
2023-01-10T13:02:27.087Z,97925.06
2023-01-10T13:06:45.199Z,97927.91
2023-01-10T13:11:05.565Z,97932.25
2023-01-10T13:15:36.915Z,97939.44
2023-01-10T13:20:16.570Z,97929.69
2023-01-10T13:24:34.480Z,97947.66
2023-01-10T13:29:01.157Z,97942.53
2023-01-10T13:33:49.997Z,97957.75
2023-01-10T13:38:21.016Z,97963.28
2023-01-10T13:42:57.486Z,97969.13
2023-01-10T13:47:40.671Z,97962.63
2023-01-10T13:52:29.272Z,97967.94
2023-01-10T13:56:46.783Z,97979.09
2023-01-10T14:01:23.743Z,97988.13
2023-01-10T14:05:48.782Z,97974.69
2023-01-10T14:10:10.919Z,97986.47
2023-01-10T14:14:41.193Z,97987.00
2023-01-10T14:18:59.781Z,97989.03
2023-01-10T14:23:21.862Z,97996.63
2023-01-10T14:27:49.422Z,97999.38
2023-01-10T14:32:28.034Z,98005.50
2023-01-10T14:36:55.483Z,98008.94
2023-01-10T14:41:23.212Z,98008.69
2023-01-10T14:46:03.226Z,98024.91
2023-01-10T14:50:32.772Z,98033.06
2023-01-10T14:55:09.482Z,98053.41
2023-01-10T14:59:32.144Z,98043.28
2023-01-10T15:03:50.173Z,98041.81
2023-01-10T15:08:26.673Z,98041.63
2023-01-10T15:12:45.429Z,98048.81
2023-01-10T15:17:06.411Z,98057.31
2023-01-10T15:21:26.029Z,98055.72
2023-01-10T15:25:44.825Z,98058.28
2023-01-10T15:30:02.262Z,98061.31
2023-01-10T15:34:23.637Z,98060.78
2023-01-10T15:38:46.767Z,98057.50
2023-01-10T15:43:34.313Z,98052.63
2023-01-10T15:47:54.848Z,98057.31
2023-01-10T15:52:30.632Z,98060.06
2023-01-10T15:57:01.473Z,98061.84
2023-01-10T16:01:19.262Z,98073.25
2023-01-10T16:05:37.044Z,98076.47
2023-01-10T16:10:07.863Z,98087.47
2023-01-10T16:14:26.500Z,98092.84
2023-01-10T16:18:44.049Z,98101.03
2023-01-10T16:23:03.962Z,98102.66
2023-01-10T16:27:21.579Z,98105.84
2023-01-10T16:31:39.823Z,98108.56
2023-01-10T16:36:00.264Z,98121.69
2023-01-10T16:40:24.983Z,98124.94
2023-01-10T16:44:43.127Z,98132.81
2023-01-10T16:49:01.100Z,98137.00
2023-01-10T16:53:20.547Z,98145.84
2023-01-10T16:57:38.164Z,98152.28
2023-01-10T17:01:58.579Z,98168.31
2023-01-10T17:06:16.723Z,98174.72
2023-01-10T17:10:36.629Z,98182.88
2023-01-10T17:14:54.174Z,98182.31
2023-01-10T17:19:11.876Z,98200.13
2023-01-10T17:23:29.770Z,98207.16
2023-01-10T17:27:47.544Z,98214.22
2023-01-10T17:32:05.640Z,98217.63
2023-01-10T17:36:28.735Z,98222.44
2023-01-10T17:40:47.666Z,98233.22
2023-01-10T17:45:09.331Z,98225.34
2023-01-10T17:49:27.001Z,98231.25
2023-01-10T17:53:44.892Z,98248.59
2023-01-10T17:58:05.813Z,98241.22
2023-01-10T18:02:23.656Z,98247.44
2023-01-10T18:06:41.674Z,98247.66
2023-01-10T18:11:00.918Z,98254.53
2023-01-10T18:15:18.568Z,98254.41
2023-01-10T18:19:36.620Z,98241.41
2023-01-10T18:23:59.505Z,98234.19
2023-01-10T18:28:18.724Z,98252.81
2023-01-10T18:32:37.735Z,98241.72
2023-01-10T18:36:55.441Z,98243.47
2023-01-10T18:41:14.935Z,98243.78
2023-01-10T18:45:32.603Z,98252.81
2023-01-10T18:49:50.854Z,98253.78
2023-01-10T18:54:08.820Z,98258.41
2023-01-10T18:58:30.203Z,98260.97
2023-01-10T19:02:48.365Z,98258.28
2023-01-10T19:07:06.153Z,98260.84
2023-01-10T19:11:23.968Z,98258.59
2023-01-10T19:15:41.549Z,98260.47
2023-01-10T19:19:59.146Z,98267.09
2023-01-10T19:24:27.473Z,98271.09
2023-01-10T19:28:45.886Z,98274.81
2023-01-10T19:33:03.942Z,98275.38
2023-01-10T19:37:21.673Z,98279.28
2023-01-10T19:41:40.593Z,98279.25
2023-01-10T19:45:58.509Z,98287.47
2023-01-10T19:50:17.149Z,98287.97
2023-01-10T19:54:34.911Z,98302.72
2023-01-10T19:58:55.068Z,98304.81
2023-01-10T20:03:14.064Z,98305.94
2023-01-10T20:07:31.854Z,98302.41
2023-01-10T20:11:49.498Z,98306.56
2023-01-10T20:16:07.675Z,98312.84
2023-01-10T20:20:25.285Z,98319.91
2023-01-10T20:24:43.230Z,98312.06
2023-01-10T20:29:02.860Z,98316.06
2023-01-10T20:33:27.024Z,98326.34
2023-01-10T20:37:44.577Z,98312.22
2023-01-10T20:42:02.356Z,98326.97
2023-01-10T20:46:29.748Z,98334.69
2023-01-10T20:50:47.670Z,98340.94
2023-01-10T20:55:06.169Z,98336.00
2023-01-10T20:59:25.891Z,98332.28
2023-01-10T21:03:45.772Z,98339.97
2023-01-10T21:08:03.769Z,98345.13
2023-01-10T21:12:23.186Z,98344.97
2023-01-10T21:16:41.655Z,98348.03
2023-01-10T21:21:00.351Z,98350.75
2023-01-10T21:25:17.844Z,98344.31
2023-01-10T21:29:35.710Z,98336.50
2023-01-10T21:33:54.225Z,98340.94
2023-01-10T21:38:11.982Z,98353.66
2023-01-10T21:42:35.445Z,98358.13
2023-01-10T21:46:53.241Z,98357.19
2023-01-10T21:51:11.043Z,98358.63
2023-01-10T21:55:29.129Z,98374.22
2023-01-10T21:59:46.705Z,98382.72
2023-01-10T22:04:05.782Z,98383.34
2023-01-10T22:08:24.129Z,98387.38
2023-01-10T22:12:41.838Z,98383.34
2023-01-10T22:16:59.357Z,98382.06
2023-01-10T22:21:19.984Z,98380.28
2023-01-10T22:25:37.593Z,98364.56
2023-01-10T22:29:55.640Z,98361.03
2023-01-10T22:34:44.601Z,98381.59
2023-01-10T22:39:20.782Z,98364.56
2023-01-10T22:43:57.636Z,98368.25
2023-01-10T22:48:38.462Z,98366.53
2023-01-10T22:53:08.876Z,98357.19
2023-01-10T22:57:47.450Z,98367.78
2023-01-10T23:02:20.401Z,98380.81
2023-01-10T23:06:57.112Z,98379.03
2023-01-10T23:11:33.064Z,98376.63
2023-01-10T23:16:15.566Z,98380.97
2023-01-10T23:20:48.518Z,98370.53
2023-01-10T23:25:21.130Z,98369.06
2023-01-10T23:29:57.300Z,98368.13
2023-01-10T23:34:33.205Z,98363.13
2023-01-10T23:39:09.718Z,98362.66
2023-01-10T23:43:45.517Z,98358.16
2023-01-10T23:48:22.195Z,98355.91
2023-01-10T23:52:58.172Z,98365.38
2023-01-10T23:57:34.553Z,98369.91
